sensor_id;sensor_type;location;lat;lon;timestamp;temperature;humidity
26503;DHT22;14177;51.520;6.764;2023-06-26T00:00:32;23.30;99.90
26503;DHT22;14177;51.520;6.764;2023-06-26T00:02:59;23.30;99.90
26503;DHT22;14177;51.520;6.764;2023-06-26T00:05:41;23.30;99.90
26503;DHT22;14177;51.520;6.764;2023-06-26T00:08:09;23.40;99.90
26503;DHT22;14177;51.520;6.764;2023-06-26T00:10:37;23.30;99.90
26503;DHT22;14177;51.520;6.764;2023-06-26T00:13:05;23.40;99.90
26503;DHT22;14177;51.520;6.764;2023-06-26T00:15:39;23.40;99.90
26503;DHT22;14177;51.520;6.764;2023-06-26T00:18:07;23.50;99.90
26503;DHT22;14177;51.520;6.764;2023-06-26T00:20:47;23.50;99.90
26503;DHT22;14177;51.520;6.764;2023-06-26T00:23:16;23.60;99.90
26503;DHT22;14177;51.520;6.764;2023-06-26T00:25:44;23.70;99.90
26503;DHT22;14177;51.520;6.764;2023-06-26T00:28:12;23.80;99.90
26503;DHT22;14177;51.520;6.764;2023-06-26T00:30:40;23.90;99.90
26503;DHT22;14177;51.520;6.764;2023-06-26T00:33:21;23.90;99.90
26503;DHT22;14177;51.520;6.764;2023-06-26T00:36:02;23.90;99.90
26503;DHT22;14177;51.520;6.764;2023-06-26T00:38:30;23.90;99.90
26503;DHT22;14177;51.520;6.764;2023-06-26T00:40:58;23.80;99.90
26503;DHT22;14177;51.520;6.764;2023-06-26T00:43:39;23.80;99.90
26503;DHT22;14177;51.520;6.764;2023-06-26T00:46:23;23.80;99.90
26503;DHT22;14177;51.520;6.764;2023-06-26T00:49:05;23.70;99.90
26503;DHT22;14177;51.520;6.764;2023-06-26T00:51:34;23.70;99.90
26503;DHT22;14177;51.520;6.764;2023-06-26T00:54:03;23.70;99.90
26503;DHT22;14177;51.520;6.764;2023-06-26T00:56:32;23.60;99.90
26503;DHT22;14177;51.520;6.764;2023-06-26T00:59:04;23.70;99.90
26503;DHT22;14177;51.520;6.764;2023-06-26T01:01:31;23.70;99.90
26503;DHT22;14177;51.520;6.764;2023-06-26T01:03:58;23.70;99.90
26503;DHT22;14177;51.520;6.764;2023-06-26T01:06:28;23.70;99.90
26503;DHT22;14177;51.520;6.764;2023-06-26T01:09:02;23.70;99.90
26503;DHT22;14177;51.520;6.764;2023-06-26T01:11:31;23.80;99.90
26503;DHT22;14177;51.520;6.764;2023-06-26T01:14:00;23.80;99.90
26503;DHT22;14177;51.520;6.764;2023-06-26T01:16:29;23.80;99.90
26503;DHT22;14177;51.520;6.764;2023-06-26T01:19:01;23.80;99.90
26503;DHT22;14177;51.520;6.764;2023-06-26T01:21:43;23.80;99.90
26503;DHT22;14177;51.520;6.764;2023-06-26T01:24:17;23.80;99.90
26503;DHT22;14177;51.520;6.764;2023-06-26T01:26:53;23.80;99.90
26503;DHT22;14177;51.520;6.764;2023-06-26T01:29:21;23.80;99.90
26503;DHT22;14177;51.520;6.764;2023-06-26T01:31:50;23.80;99.90
26503;DHT22;14177;51.520;6.764;2023-06-26T01:34:18;23.70;99.90
26503;DHT22;14177;51.520;6.764;2023-06-26T01:36:50;23.70;99.90
26503;DHT22;14177;51.520;6.764;2023-06-26T01:39:19;23.70;99.90
26503;DHT22;14177;51.520;6.764;2023-06-26T01:41:46;23.70;99.90
26503;DHT22;14177;51.520;6.764;2023-06-26T01:44:29;23.60;99.90
26503;DHT22;14177;51.520;6.764;2023-06-26T01:47:06;23.60;99.90
26503;DHT22;14177;51.520;6.764;2023-06-26T01:49:38;23.60;99.90
26503;DHT22;14177;51.520;6.764;2023-06-26T01:52:24;23.50;99.90
26503;DHT22;14177;51.520;6.764;2023-06-26T01:55:21;23.50;99.90
26503;DHT22;14177;51.520;6.764;2023-06-26T01:57:56;23.50;99.90
26503;DHT22;14177;51.520;6.764;2023-06-26T02:00:32;23.50;99.90
26503;DHT22;14177;51.520;6.764;2023-06-26T02:03:00;23.40;99.90
26503;DHT22;14177;51.520;6.764;2023-06-26T02:05:29;23.40;99.90
26503;DHT22;14177;51.520;6.764;2023-06-26T02:07:58;23.40;99.90
26503;DHT22;14177;51.520;6.764;2023-06-26T02:10:29;23.40;99.90
26503;DHT22;14177;51.520;6.764;2023-06-26T02:12:57;23.40;99.90
26503;DHT22;14177;51.520;6.764;2023-06-26T02:15:25;23.40;99.90
26503;DHT22;14177;51.520;6.764;2023-06-26T02:17:53;23.40;99.90
26503;DHT22;14177;51.520;6.764;2023-06-26T02:20:34;23.40;99.90
26503;DHT22;14177;51.520;6.764;2023-06-26T02:23:14;23.30;99.90
26503;DHT22;14177;51.520;6.764;2023-06-26T02:25:41;23.30;99.90
26503;DHT22;14177;51.520;6.764;2023-06-26T02:28:22;23.30;99.90
26503;DHT22;14177;51.520;6.764;2023-06-26T02:31:03;23.30;99.90
26503;DHT22;14177;51.520;6.764;2023-06-26T02:33:32;23.30;99.90
26503;DHT22;14177;51.520;6.764;2023-06-26T02:36:03;23.20;99.90
26503;DHT22;14177;51.520;6.764;2023-06-26T02:38:32;23.20;99.90
26503;DHT22;14177;51.520;6.764;2023-06-26T02:41:01;23.20;99.90
26503;DHT22;14177;51.520;6.764;2023-06-26T02:43:28;23.20;99.90
26503;DHT22;14177;51.520;6.764;2023-06-26T02:45:56;23.20;99.90
26503;DHT22;14177;51.520;6.764;2023-06-26T02:48:23;23.20;99.90
26503;DHT22;14177;51.520;6.764;2023-06-26T02:50:50;23.20;99.90
26503;DHT22;14177;51.520;6.764;2023-06-26T02:53:26;23.10;99.90
26503;DHT22;14177;51.520;6.764;2023-06-26T02:56:12;23.20;99.90
26503;DHT22;14177;51.520;6.764;2023-06-26T02:58:40;23.20;99.90
26503;DHT22;14177;51.520;6.764;2023-06-26T03:01:09;23.30;99.90
26503;DHT22;14177;51.520;6.764;2023-06-26T03:03:38;23.30;99.90
26503;DHT22;14177;51.520;6.764;2023-06-26T03:06:16;23.30;99.90
26503;DHT22;14177;51.520;6.764;2023-06-26T03:08:44;23.40;99.90
26503;DHT22;14177;51.520;6.764;2023-06-26T03:11:15;23.40;99.90
26503;DHT22;14177;51.520;6.764;2023-06-26T03:13:44;23.50;99.90
26503;DHT22;14177;51.520;6.764;2023-06-26T03:16:21;23.50;99.90
26503;DHT22;14177;51.520;6.764;2023-06-26T03:19:02;23.40;99.90
26503;DHT22;14177;51.520;6.764;2023-06-26T03:21:33;23.30;99.90
26503;DHT22;14177;51.520;6.764;2023-06-26T03:24:01;23.30;99.90
26503;DHT22;14177;51.520;6.764;2023-06-26T03:26:28;23.20;99.90
26503;DHT22;14177;51.520;6.764;2023-06-26T03:28:58;23.10;99.90
26503;DHT22;14177;51.520;6.764;2023-06-26T03:31:25;23.10;99.90
26503;DHT22;14177;51.520;6.764;2023-06-26T03:34:07;23.00;99.90
26503;DHT22;14177;51.520;6.764;2023-06-26T03:36:49;22.90;99.90
26503;DHT22;14177;51.520;6.764;2023-06-26T03:39:17;22.80;99.90
26503;DHT22;14177;51.520;6.764;2023-06-26T03:41:44;22.70;99.90
26503;DHT22;14177;51.520;6.764;2023-06-26T03:44:25;22.70;99.90
26503;DHT22;14177;51.520;6.764;2023-06-26T03:46:53;22.50;99.90
26503;DHT22;14177;51.520;6.764;2023-06-26T03:49:20;22.50;99.90
26503;DHT22;14177;51.520;6.764;2023-06-26T03:51:49;22.50;99.90
26503;DHT22;14177;51.520;6.764;2023-06-26T03:54:30;22.40;99.90
26503;DHT22;14177;51.520;6.764;2023-06-26T03:57:00;22.40;99.90
26503;DHT22;14177;51.520;6.764;2023-06-26T03:59:28;22.30;99.90
26503;DHT22;14177;51.520;6.764;2023-06-26T04:01:54;22.30;99.90
26503;DHT22;14177;51.520;6.764;2023-06-26T04:04:22;22.30;99.90
26503;DHT22;14177;51.520;6.764;2023-06-26T04:06:49;22.30;99.90
26503;DHT22;14177;51.520;6.764;2023-06-26T04:09:30;22.20;99.90
26503;DHT22;14177;51.520;6.764;2023-06-26T04:12:03;22.20;99.90
26503;DHT22;14177;51.520;6.764;2023-06-26T04:14:34;22.20;99.90
26503;DHT22;14177;51.520;6.764;2023-06-26T04:17:05;22.10;99.90
26503;DHT22;14177;51.520;6.764;2023-06-26T04:19:52;22.20;99.90
26503;DHT22;14177;51.520;6.764;2023-06-26T04:22:20;22.20;99.90
26503;DHT22;14177;51.520;6.764;2023-06-26T04:25:03;22.20;99.90
26503;DHT22;14177;51.520;6.764;2023-06-26T04:27:46;22.20;99.90
26503;DHT22;14177;51.520;6.764;2023-06-26T04:30:17;22.20;99.90
26503;DHT22;14177;51.520;6.764;2023-06-26T04:32:59;22.30;99.90
26503;DHT22;14177;51.520;6.764;2023-06-26T04:35:28;22.30;99.90
26503;DHT22;14177;51.520;6.764;2023-06-26T04:37:56;22.30;99.90
26503;DHT22;14177;51.520;6.764;2023-06-26T04:40:37;22.30;99.90
26503;DHT22;14177;51.520;6.764;2023-06-26T04:43:19;22.30;99.90
26503;DHT22;14177;51.520;6.764;2023-06-26T04:45:49;22.30;99.90
26503;DHT22;14177;51.520;6.764;2023-06-26T04:48:18;22.30;99.90
26503;DHT22;14177;51.520;6.764;2023-06-26T04:50:46;22.30;99.90
26503;DHT22;14177;51.520;6.764;2023-06-26T04:53:21;22.30;99.90
26503;DHT22;14177;51.520;6.764;2023-06-26T04:55:53;22.30;99.90
26503;DHT22;14177;51.520;6.764;2023-06-26T04:58:22;22.30;99.90
26503;DHT22;14177;51.520;6.764;2023-06-26T05:00:50;22.30;99.90
26503;DHT22;14177;51.520;6.764;2023-06-26T05:03:21;22.40;99.90
26503;DHT22;14177;51.520;6.764;2023-06-26T05:05:49;22.40;99.90
26503;DHT22;14177;51.520;6.764;2023-06-26T05:08:35;22.40;99.90
26503;DHT22;14177;51.520;6.764;2023-06-26T05:11:02;22.40;99.90
26503;DHT22;14177;51.520;6.764;2023-06-26T05:13:38;22.40;99.90
26503;DHT22;14177;51.520;6.764;2023-06-26T05:16:08;22.50;99.90
26503;DHT22;14177;51.520;6.764;2023-06-26T05:18:36;22.50;99.90
26503;DHT22;14177;51.520;6.764;2023-06-26T05:21:17;22.50;99.90
26503;DHT22;14177;51.520;6.764;2023-06-26T05:23:58;22.50;99.90
26503;DHT22;14177;51.520;6.764;2023-06-26T05:26:31;22.40;99.90
26503;DHT22;14177;51.520;6.764;2023-06-26T05:29:13;22.40;99.90
26503;DHT22;14177;51.520;6.764;2023-06-26T05:31:56;22.40;99.90
26503;DHT22;14177;51.520;6.764;2023-06-26T05:34:28;22.40;99.90
26503;DHT22;14177;51.520;6.764;2023-06-26T05:36:58;22.40;99.90
26503;DHT22;14177;51.520;6.764;2023-06-26T05:39:28;22.50;99.90
26503;DHT22;14177;51.520;6.764;2023-06-26T05:41:56;22.60;99.90
26503;DHT22;14177;51.520;6.764;2023-06-26T05:44:26;22.70;99.90
26503;DHT22;14177;51.520;6.764;2023-06-26T05:47:02;22.60;99.90
26503;DHT22;14177;51.520;6.764;2023-06-26T05:49:30;22.60;99.90
26503;DHT22;14177;51.520;6.764;2023-06-26T05:52:15;22.60;99.90
26503;DHT22;14177;51.520;6.764;2023-06-26T05:55:00;22.60;99.90
26503;DHT22;14177;51.520;6.764;2023-06-26T05:57:46;22.60;99.90
26503;DHT22;14177;51.520;6.764;2023-06-26T06:00:26;22.60;99.90
26503;DHT22;14177;51.520;6.764;2023-06-26T06:02:54;22.50;99.90
26503;DHT22;14177;51.520;6.764;2023-06-26T06:05:22;22.40;99.90
26503;DHT22;14177;51.520;6.764;2023-06-26T06:07:50;22.30;99.90
26503;DHT22;14177;51.520;6.764;2023-06-26T06:10:17;22.30;99.90
26503;DHT22;14177;51.520;6.764;2023-06-26T06:12:44;22.30;99.90
26503;DHT22;14177;51.520;6.764;2023-06-26T06:15:11;22.30;99.90
26503;DHT22;14177;51.520;6.764;2023-06-26T06:17:39;22.30;99.90
26503;DHT22;14177;51.520;6.764;2023-06-26T06:20:06;22.30;99.90
26503;DHT22;14177;51.520;6.764;2023-06-26T06:22:33;22.10;99.90
26503;DHT22;14177;51.520;6.764;2023-06-26T06:25:00;22.10;99.90
26503;DHT22;14177;51.520;6.764;2023-06-26T06:27:27;22.10;99.90
26503;DHT22;14177;51.520;6.764;2023-06-26T06:29:54;22.10;99.90
26503;DHT22;14177;51.520;6.764;2023-06-26T06:32:21;22.20;99.90
26503;DHT22;14177;51.520;6.764;2023-06-26T06:34:48;22.20;99.90
26503;DHT22;14177;51.520;6.764;2023-06-26T06:37:15;22.30;99.90
26503;DHT22;14177;51.520;6.764;2023-06-26T06:39:42;22.40;99.90
26503;DHT22;14177;51.520;6.764;2023-06-26T06:42:09;22.50;99.90
26503;DHT22;14177;51.520;6.764;2023-06-26T06:44:36;22.70;99.90
26503;DHT22;14177;51.520;6.764;2023-06-26T06:47:03;22.80;99.90
26503;DHT22;14177;51.520;6.764;2023-06-26T06:49:30;22.90;99.90
26503;DHT22;14177;51.520;6.764;2023-06-26T06:51:57;22.90;99.90
26503;DHT22;14177;51.520;6.764;2023-06-26T06:54:26;23.00;99.90
26503;DHT22;14177;51.520;6.764;2023-06-26T06:56:58;23.00;99.90
26503;DHT22;14177;51.520;6.764;2023-06-26T06:59:25;23.10;99.90
26503;DHT22;14177;51.520;6.764;2023-06-26T07:01:55;23.20;99.90
26503;DHT22;14177;51.520;6.764;2023-06-26T07:04:23;23.20;99.90
26503;DHT22;14177;51.520;6.764;2023-06-26T07:06:54;23.20;99.90
26503;DHT22;14177;51.520;6.764;2023-06-26T07:09:21;23.20;99.90
26503;DHT22;14177;51.520;6.764;2023-06-26T07:11:48;23.20;99.90
26503;DHT22;14177;51.520;6.764;2023-06-26T07:14:15;23.20;99.90
26503;DHT22;14177;51.520;6.764;2023-06-26T07:16:42;23.20;99.90
26503;DHT22;14177;51.520;6.764;2023-06-26T07:19:08;23.30;99.90
26503;DHT22;14177;51.520;6.764;2023-06-26T07:21:35;23.30;99.90
26503;DHT22;14177;51.520;6.764;2023-06-26T07:24:02;23.40;99.90
26503;DHT22;14177;51.520;6.764;2023-06-26T07:26:29;23.50;99.90
26503;DHT22;14177;51.520;6.764;2023-06-26T07:29:10;23.60;99.90
26503;DHT22;14177;51.520;6.764;2023-06-26T07:31:37;23.70;99.90
26503;DHT22;14177;51.520;6.764;2023-06-26T07:34:04;24.00;99.90
26503;DHT22;14177;51.520;6.764;2023-06-26T07:36:30;24.30;99.90
26503;DHT22;14177;51.520;6.764;2023-06-26T07:38:57;24.60;99.90
26503;DHT22;14177;51.520;6.764;2023-06-26T07:41:24;24.60;99.90
26503;DHT22;14177;51.520;6.764;2023-06-26T07:43:51;24.50;99.90
26503;DHT22;14177;51.520;6.764;2023-06-26T07:46:18;24.50;99.90
26503;DHT22;14177;51.520;6.764;2023-06-26T07:48:45;24.70;99.90
26503;DHT22;14177;51.520;6.764;2023-06-26T07:51:12;24.70;99.90
26503;DHT22;14177;51.520;6.764;2023-06-26T07:53:38;24.70;99.90
26503;DHT22;14177;51.520;6.764;2023-06-26T07:56:05;24.60;99.90
26503;DHT22;14177;51.520;6.764;2023-06-26T07:58:32;24.50;99.90
26503;DHT22;14177;51.520;6.764;2023-06-26T08:01:00;24.60;99.90
26503;DHT22;14177;51.520;6.764;2023-06-26T08:03:26;24.70;99.90
26503;DHT22;14177;51.520;6.764;2023-06-26T08:06:01;24.60;99.90
26503;DHT22;14177;51.520;6.764;2023-06-26T08:08:29;24.60;99.90
26503;DHT22;14177;51.520;6.764;2023-06-26T08:10:56;24.50;99.90
26503;DHT22;14177;51.520;6.764;2023-06-26T08:13:23;24.40;99.90
26503;DHT22;14177;51.520;6.764;2023-06-26T08:15:51;24.40;99.90
26503;DHT22;14177;51.520;6.764;2023-06-26T08:18:18;24.30;99.90
26503;DHT22;14177;51.520;6.764;2023-06-26T08:20:45;24.20;99.90
26503;DHT22;14177;51.520;6.764;2023-06-26T08:23:11;24.10;99.90
26503;DHT22;14177;51.520;6.764;2023-06-26T08:25:38;24.20;99.90
26503;DHT22;14177;51.520;6.764;2023-06-26T08:28:05;24.30;99.90
26503;DHT22;14177;51.520;6.764;2023-06-26T08:30:32;24.40;99.90
26503;DHT22;14177;51.520;6.764;2023-06-26T08:32:59;24.50;99.90
26503;DHT22;14177;51.520;6.764;2023-06-26T08:35:26;24.50;99.90
26503;DHT22;14177;51.520;6.764;2023-06-26T08:37:53;24.40;99.90
26503;DHT22;14177;51.520;6.764;2023-06-26T08:40:21;24.50;99.90
26503;DHT22;14177;51.520;6.764;2023-06-26T08:42:48;24.60;99.90
26503;DHT22;14177;51.520;6.764;2023-06-26T08:45:20;24.90;99.90
26503;DHT22;14177;51.520;6.764;2023-06-26T08:47:51;25.00;99.90
26503;DHT22;14177;51.520;6.764;2023-06-26T08:50:23;25.00;99.90
26503;DHT22;14177;51.520;6.764;2023-06-26T08:55:42;24.70;99.90
26503;DHT22;14177;51.520;6.764;2023-06-26T08:58:10;24.70;99.90
26503;DHT22;14177;51.520;6.764;2023-06-26T09:00:39;24.80;99.90
26503;DHT22;14177;51.520;6.764;2023-06-26T09:03:07;24.80;99.90
26503;DHT22;14177;51.520;6.764;2023-06-26T09:05:36;24.90;99.90
26503;DHT22;14177;51.520;6.764;2023-06-26T09:08:03;25.20;99.60
26503;DHT22;14177;51.520;6.764;2023-06-26T09:10:31;25.40;99.10
26503;DHT22;14177;51.520;6.764;2023-06-26T09:12:58;25.50;98.50
26503;DHT22;14177;51.520;6.764;2023-06-26T09:15:25;26.00;98.50
26503;DHT22;14177;51.520;6.764;2023-06-26T09:17:56;26.20;97.30
26503;DHT22;14177;51.520;6.764;2023-06-26T09:20:27;26.30;97.60
26503;DHT22;14177;51.520;6.764;2023-06-26T09:22:57;26.60;97.10
26503;DHT22;14177;51.520;6.764;2023-06-26T09:25:24;26.70;96.20
26503;DHT22;14177;51.520;6.764;2023-06-26T09:27:52;26.70;95.90
26503;DHT22;14177;51.520;6.764;2023-06-26T09:30:19;26.60;95.30
26503;DHT22;14177;51.520;6.764;2023-06-26T09:32:47;26.60;95.20
26503;DHT22;14177;51.520;6.764;2023-06-26T09:35:14;26.50;95.10
26503;DHT22;14177;51.520;6.764;2023-06-26T09:37:42;26.40;95.20
26503;DHT22;14177;51.520;6.764;2023-06-26T09:40:10;26.20;95.60
26503;DHT22;14177;51.520;6.764;2023-06-26T09:42:37;26.00;95.30
26503;DHT22;14177;51.520;6.764;2023-06-26T09:45:04;26.30;95.90
26503;DHT22;14177;51.520;6.764;2023-06-26T09:47:35;26.60;94.50
26503;DHT22;14177;51.520;6.764;2023-06-26T09:50:05;26.60;94.20
26503;DHT22;14177;51.520;6.764;2023-06-26T09:52:47;26.60;94.00
26503;DHT22;14177;51.520;6.764;2023-06-26T09:55:14;26.50;93.70
26503;DHT22;14177;51.520;6.764;2023-06-26T09:57:41;26.40;94.40
26503;DHT22;14177;51.520;6.764;2023-06-26T10:00:12;26.80;93.40
26503;DHT22;14177;51.520;6.764;2023-06-26T10:02:40;27.00;91.60
26503;DHT22;14177;51.520;6.764;2023-06-26T10:05:07;27.10;91.60
26503;DHT22;14177;51.520;6.764;2023-06-26T10:07:35;27.20;90.70
26503;DHT22;14177;51.520;6.764;2023-06-26T10:10:05;27.30;89.20
26503;DHT22;14177;51.520;6.764;2023-06-26T10:12:34;27.50;89.30
26503;DHT22;14177;51.520;6.764;2023-06-26T10:15:03;27.70;86.30
26503;DHT22;14177;51.520;6.764;2023-06-26T10:17:34;28.00;86.30
26503;DHT22;14177;51.520;6.764;2023-06-26T10:20:03;28.40;85.70
26503;DHT22;14177;51.520;6.764;2023-06-26T10:22:41;28.60;84.50
26503;DHT22;14177;51.520;6.764;2023-06-26T10:25:14;28.60;85.10
26503;DHT22;14177;51.520;6.764;2023-06-26T10:27:50;28.50;85.30
26503;DHT22;14177;51.520;6.764;2023-06-26T10:30:28;28.10;85.00
26503;DHT22;14177;51.520;6.764;2023-06-26T10:32:59;27.40;85.90
26503;DHT22;14177;51.520;6.764;2023-06-26T10:35:27;26.90;85.70
26503;DHT22;14177;51.520;6.764;2023-06-26T10:38:01;26.70;86.70
26503;DHT22;14177;51.520;6.764;2023-06-26T10:40:44;26.70;86.20
26503;DHT22;14177;51.520;6.764;2023-06-26T10:43:13;27.00;86.00
26503;DHT22;14177;51.520;6.764;2023-06-26T10:45:48;27.50;84.40
26503;DHT22;14177;51.520;6.764;2023-06-26T10:48:21;27.70;85.20
26503;DHT22;14177;51.520;6.764;2023-06-26T10:50:49;28.10;82.80
26503;DHT22;14177;51.520;6.764;2023-06-26T10:55:59;28.70;79.60
26503;DHT22;14177;51.520;6.764;2023-06-26T11:03:41;28.20;75.20
26503;DHT22;14177;51.520;6.764;2023-06-26T11:06:17;28.10;74.20
26503;DHT22;14177;51.520;6.764;2023-06-26T11:08:54;28.20;73.30
26503;DHT22;14177;51.520;6.764;2023-06-26T11:14:25;28.50;72.20
26503;DHT22;14177;51.520;6.764;2023-06-26T11:16:56;28.50;72.80
26503;DHT22;14177;51.520;6.764;2023-06-26T11:19:26;28.50;72.80
26503;DHT22;14177;51.520;6.764;2023-06-26T11:22:13;28.40;72.50
26503;DHT22;14177;51.520;6.764;2023-06-26T11:24:42;28.30;71.90
26503;DHT22;14177;51.520;6.764;2023-06-26T11:27:10;27.90;71.60
26503;DHT22;14177;51.520;6.764;2023-06-26T11:29:36;27.70;70.50
26503;DHT22;14177;51.520;6.764;2023-06-26T11:32:04;27.80;70.20
26503;DHT22;14177;51.520;6.764;2023-06-26T11:34:33;27.50;68.80
26503;DHT22;14177;51.520;6.764;2023-06-26T11:37:01;27.50;69.10
26503;DHT22;14177;51.520;6.764;2023-06-26T11:39:28;27.70;68.80
26503;DHT22;14177;51.520;6.764;2023-06-26T11:41:56;27.90;67.20
26503;DHT22;14177;51.520;6.764;2023-06-26T11:44:23;27.90;68.20
26503;DHT22;14177;51.520;6.764;2023-06-26T11:46:53;28.10;67.80
26503;DHT22;14177;51.520;6.764;2023-06-26T11:49:22;28.50;66.50
26503;DHT22;14177;51.520;6.764;2023-06-26T11:51:52;28.70;63.90
26503;DHT22;14177;51.520;6.764;2023-06-26T11:54:25;28.50;63.90
26503;DHT22;14177;51.520;6.764;2023-06-26T11:56:58;28.20;64.10
26503;DHT22;14177;51.520;6.764;2023-06-26T11:59:39;28.30;65.70
26503;DHT22;14177;51.520;6.764;2023-06-26T12:02:07;28.40;62.90
26503;DHT22;14177;51.520;6.764;2023-06-26T12:04:41;28.50;62.20
26503;DHT22;14177;51.520;6.764;2023-06-26T12:07:10;28.60;62.30
26503;DHT22;14177;51.520;6.764;2023-06-26T12:09:43;28.80;61.70
26503;DHT22;14177;51.520;6.764;2023-06-26T12:12:14;29.00;62.60
26503;DHT22;14177;51.520;6.764;2023-06-26T12:14:43;29.30;61.30
26503;DHT22;14177;51.520;6.764;2023-06-26T12:17:12;29.40;60.70
26503;DHT22;14177;51.520;6.764;2023-06-26T12:19:44;29.40;59.80
26503;DHT22;14177;51.520;6.764;2023-06-26T12:22:17;29.40;60.30
26503;DHT22;14177;51.520;6.764;2023-06-26T12:24:46;29.40;60.50
26503;DHT22;14177;51.520;6.764;2023-06-26T12:27:15;29.60;60.60
26503;DHT22;14177;51.520;6.764;2023-06-26T12:29:54;29.40;61.80
26503;DHT22;14177;51.520;6.764;2023-06-26T12:32:24;29.30;59.60
26503;DHT22;14177;51.520;6.764;2023-06-26T12:34:56;29.20;59.40
26503;DHT22;14177;51.520;6.764;2023-06-26T12:37:24;29.20;59.40
26503;DHT22;14177;51.520;6.764;2023-06-26T12:39:55;28.70;58.70
26503;DHT22;14177;51.520;6.764;2023-06-26T12:42:25;28.40;59.70
26503;DHT22;14177;51.520;6.764;2023-06-26T12:44:55;28.30;59.50
26503;DHT22;14177;51.520;6.764;2023-06-26T12:47:28;28.50;60.40
26503;DHT22;14177;51.520;6.764;2023-06-26T12:49:57;28.60;59.00
26503;DHT22;14177;51.520;6.764;2023-06-26T12:52:24;28.60;58.70
26503;DHT22;14177;51.520;6.764;2023-06-26T12:54:53;28.40;60.30
26503;DHT22;14177;51.520;6.764;2023-06-26T12:57:21;28.80;61.00
26503;DHT22;14177;51.520;6.764;2023-06-26T12:59:48;29.00;58.40
26503;DHT22;14177;51.520;6.764;2023-06-26T13:02:15;29.00;59.60
26503;DHT22;14177;51.520;6.764;2023-06-26T13:04:42;29.10;59.10
26503;DHT22;14177;51.520;6.764;2023-06-26T13:07:12;29.10;57.20
26503;DHT22;14177;51.520;6.764;2023-06-26T13:09:42;28.80;56.70
26503;DHT22;14177;51.520;6.764;2023-06-26T13:12:20;28.50;57.30
26503;DHT22;14177;51.520;6.764;2023-06-26T13:14:52;28.50;58.40
26503;DHT22;14177;51.520;6.764;2023-06-26T13:17:27;28.50;58.50
26503;DHT22;14177;51.520;6.764;2023-06-26T13:20:17;28.70;58.10
26503;DHT22;14177;51.520;6.764;2023-06-26T13:23:02;28.80;57.40
26503;DHT22;14177;51.520;6.764;2023-06-26T13:25:41;28.60;57.50
26503;DHT22;14177;51.520;6.764;2023-06-26T13:28:16;28.30;56.60
26503;DHT22;14177;51.520;6.764;2023-06-26T13:30:47;28.30;57.70
26503;DHT22;14177;51.520;6.764;2023-06-26T13:33:17;28.50;58.10
26503;DHT22;14177;51.520;6.764;2023-06-26T13:36:14;28.70;57.50
26503;DHT22;14177;51.520;6.764;2023-06-26T13:38:46;28.70;56.80
26503;DHT22;14177;51.520;6.764;2023-06-26T13:41:14;28.90;56.40
26503;DHT22;14177;51.520;6.764;2023-06-26T13:43:41;28.90;55.80
26503;DHT22;14177;51.520;6.764;2023-06-26T13:46:08;29.00;55.70
26503;DHT22;14177;51.520;6.764;2023-06-26T13:48:35;28.70;56.00
26503;DHT22;14177;51.520;6.764;2023-06-26T13:51:02;28.50;56.80
26503;DHT22;14177;51.520;6.764;2023-06-26T13:53:29;28.20;56.20
26503;DHT22;14177;51.520;6.764;2023-06-26T13:56:00;27.90;56.80
26503;DHT22;14177;51.520;6.764;2023-06-26T13:58:27;27.90;55.70
26503;DHT22;14177;51.520;6.764;2023-06-26T14:00:56;28.00;55.40
26503;DHT22;14177;51.520;6.764;2023-06-26T14:03:24;28.20;56.00
26503;DHT22;14177;51.520;6.764;2023-06-26T14:05:53;28.20;56.70
26503;DHT22;14177;51.520;6.764;2023-06-26T14:08:20;28.40;57.60
26503;DHT22;14177;51.520;6.764;2023-06-26T14:10:47;28.40;58.20
26503;DHT22;14177;51.520;6.764;2023-06-26T14:13:13;28.80;57.50
26503;DHT22;14177;51.520;6.764;2023-06-26T14:15:42;28.90;56.70
26503;DHT22;14177;51.520;6.764;2023-06-26T14:18:09;29.00;55.90
26503;DHT22;14177;51.520;6.764;2023-06-26T14:20:38;28.90;55.70
26503;DHT22;14177;51.520;6.764;2023-06-26T14:23:05;28.80;56.00
26503;DHT22;14177;51.520;6.764;2023-06-26T14:25:32;28.50;56.20
26503;DHT22;14177;51.520;6.764;2023-06-26T14:27:59;28.30;56.90
26503;DHT22;14177;51.520;6.764;2023-06-26T14:30:26;28.10;56.20
26503;DHT22;14177;51.520;6.764;2023-06-26T14:32:53;27.90;56.50
26503;DHT22;14177;51.520;6.764;2023-06-26T14:35:20;27.80;56.30
26503;DHT22;14177;51.520;6.764;2023-06-26T14:37:48;27.70;56.80
26503;DHT22;14177;51.520;6.764;2023-06-26T14:40:15;27.70;56.60
26503;DHT22;14177;51.520;6.764;2023-06-26T14:42:42;27.60;56.60
26503;DHT22;14177;51.520;6.764;2023-06-26T14:45:10;27.60;57.00
26503;DHT22;14177;51.520;6.764;2023-06-26T14:47:40;27.50;56.60
26503;DHT22;14177;51.520;6.764;2023-06-26T14:50:08;27.50;57.80
26503;DHT22;14177;51.520;6.764;2023-06-26T14:52:37;27.50;59.80
26503;DHT22;14177;51.520;6.764;2023-06-26T14:55:04;27.30;60.60
26503;DHT22;14177;51.520;6.764;2023-06-26T14:57:34;27.00;61.70
26503;DHT22;14177;51.520;6.764;2023-06-26T15:00:02;27.10;62.20
26503;DHT22;14177;51.520;6.764;2023-06-26T15:02:30;27.20;62.10
26503;DHT22;14177;51.520;6.764;2023-06-26T15:04:57;27.40;61.40
26503;DHT22;14177;51.520;6.764;2023-06-26T15:07:24;27.40;60.80
26503;DHT22;14177;51.520;6.764;2023-06-26T15:09:51;27.40;60.00
26503;DHT22;14177;51.520;6.764;2023-06-26T15:12:18;27.30;59.60
26503;DHT22;14177;51.520;6.764;2023-06-26T15:14:45;27.40;59.60
26503;DHT22;14177;51.520;6.764;2023-06-26T15:17:13;27.50;59.50
26503;DHT22;14177;51.520;6.764;2023-06-26T15:19:40;27.60;59.20
26503;DHT22;14177;51.520;6.764;2023-06-26T15:22:07;27.60;59.80
26503;DHT22;14177;51.520;6.764;2023-06-26T15:24:34;27.50;58.20
26503;DHT22;14177;51.520;6.764;2023-06-26T15:27:01;27.50;58.80
26503;DHT22;14177;51.520;6.764;2023-06-26T15:29:30;27.70;58.50
26503;DHT22;14177;51.520;6.764;2023-06-26T15:31:58;27.40;58.30
26503;DHT22;14177;51.520;6.764;2023-06-26T15:34:25;27.20;58.60
26503;DHT22;14177;51.520;6.764;2023-06-26T15:36:52;27.20;58.60
26503;DHT22;14177;51.520;6.764;2023-06-26T15:39:22;27.00;58.30
26503;DHT22;14177;51.520;6.764;2023-06-26T15:41:49;26.90;58.40
26503;DHT22;14177;51.520;6.764;2023-06-26T15:44:16;26.70;58.60
26503;DHT22;14177;51.520;6.764;2023-06-26T15:46:43;26.60;59.50
26503;DHT22;14177;51.520;6.764;2023-06-26T15:49:11;26.40;59.20
26503;DHT22;14177;51.520;6.764;2023-06-26T15:51:38;26.20;59.30
26503;DHT22;14177;51.520;6.764;2023-06-26T15:54:05;26.10;59.90
26503;DHT22;14177;51.520;6.764;2023-06-26T15:56:32;25.90;59.30
26503;DHT22;14177;51.520;6.764;2023-06-26T15:58:59;25.70;59.30
26503;DHT22;14177;51.520;6.764;2023-06-26T16:01:25;25.60;59.80
26503;DHT22;14177;51.520;6.764;2023-06-26T16:03:53;25.50;60.00